Time;durP1;ratioP1;P1;durP2;ratioP2;P2;SDS_P1;SDS_P2;PMS_P1;PMS_P2;Temp;Humidity;BMP_temperature;BMP_pressure;BME280_temperature;BME280_humidity;BME280_pressure;Samples;Min_cycle;Max_cycle;Signal;HPM_P1;HPM_P2
2022/03/22 00:00:16;;;;;;;6.19;3.68;;;;;;;3.55;63.47;102410.16;461901;112;922825;-70
2022/03/22 00:01:21;;;;;;;8.39;4.09;;;;;;;3.56;63.42;102416.41;457514;112;922494;-70
2022/03/22 00:02:25;;;;;;;7.88;3.78;;;;;;;3.55;63.36;102412.85;459215;112;922857;-70
2022/03/22 00:03:29;;;;;;;6.78;3.48;;;;;;;3.56;63.39;102411.02;469271;112;922666;-70
2022/03/22 00:04:34;;;;;;;7.02;3.33;;;;;;;3.57;63.37;102405.51;461379;112;922554;-70
2022/03/22 00:05:42;;;;;;;9.04;3.59;;;;;;;3.57;63.35;102412.73;459729;112;930430;-70
2022/03/22 00:06:45;;;;;;;7.60;3.47;;;;;;;3.57;63.39;102413.59;460116;112;922503;-69
2022/03/22 00:07:49;;;;;;;6.49;3.11;;;;;;;3.57;63.42;102413.59;466024;112;922480;-69
2022/03/22 00:08:52;;;;;;;6.99;2.91;;;;;;;3.57;63.42;102413.59;466406;112;930689;-70
2022/03/22 00:09:56;;;;;;;6.91;3.28;;;;;;;3.58;63.32;102415.31;459198;112;922962;-70
2022/03/22 00:10:59;;;;;;;6.95;3.49;;;;;;;3.58;63.33;102415.31;461869;112;922645;-69
2022/03/22 00:12:03;;;;;;;9.24;3.63;;;;;;;3.59;63.31;102411.61;455808;112;922654;-70
2022/03/22 00:13:07;;;;;;;7.31;3.14;;;;;;;3.58;63.26;102419.85;464037;112;923017;-69
2022/03/22 00:14:12;;;;;;;5.58;2.85;;;;;;;3.59;63.29;102424.23;464405;112;922479;-69
2022/03/22 00:15:17;;;;;;;8.42;3.99;;;;;;;3.59;63.28;102429.63;462870;112;922907;-69
2022/03/22 00:16:22;;;;;;;7.64;3.11;;;;;;;3.58;63.33;102419.85;461586;112;922538;-69
2022/03/22 00:17:28;;;;;;;5.72;3.08;;;;;;;3.58;63.36;102418.02;466137;112;922518;-68
2022/03/22 00:18:35;;;;;;;11.18;4.43;;;;;;;3.58;63.32;102418.02;459122;112;922970;-70
2022/03/22 00:19:38;;;;;;;7.58;4.13;;;;;;;3.57;63.27;102421.69;461906;112;922562;-70
2022/03/22 00:20:42;;;;;;;9.12;3.85;;;;;;;3.54;63.25;102419.22;465825;112;922614;-70
2022/03/22 00:21:46;;;;;;;7.01;3.58;;;;;;;3.51;63.22;102413.23;457874;112;922444;-70
2022/03/22 00:22:50;;;;;;;6.43;3.54;;;;;;;3.48;63.28;102413.46;460174;112;930825;-69
2022/03/22 00:23:54;;;;;;;8.51;3.81;;;;;;;3.45;63.35;102414.59;459431;112;922899;-70
2022/03/22 00:24:57;;;;;;;7.78;3.77;;;;;;;3.43;63.40;102416.53;456913;112;922757;-69
2022/03/22 00:26:01;;;;;;;9.59;4.34;;;;;;;3.44;63.38;102417.39;466153;112;930548;-69
2022/03/22 00:27:04;;;;;;;11.12;3.91;;;;;;;3.43;63.41;102416.53;460340;112;922548;-69
2022/03/22 00:28:08;;;;;;;8.20;4.22;;;;;;;3.41;63.44;102413.13;461722;112;930658;-70
2022/03/22 00:29:11;;;;;;;9.25;3.53;;;;;;;3.41;63.51;102413.13;456828;112;922923;-70
2022/03/22 00:30:14;;;;;;;9.18;3.82;;;;;;;3.40;63.45;102419.49;460709;112;922504;-69
2022/03/22 00:31:18;;;;;;;7.95;3.28;;;;;;;3.40;63.45;102422.19;461904;112;930572;-69
2022/03/22 00:32:22;;;;;;;5.69;3.76;;;;;;;3.38;63.48;102413.36;462760;112;923062;-69
2022/03/22 00:33:25;;;;;;;10.01;4.50;;;;;;;3.36;63.51;102418.03;461325;112;922750;-70
2022/03/22 00:34:28;;;;;;;8.01;3.27;;;;;;;3.34;63.67;102417.29;459187;112;922573;-69
2022/03/22 00:35:36;;;;;;;5.06;3.43;;;;;;;3.33;63.63;102415.56;464053;112;922542;-70
2022/03/22 00:36:41;;;;;;;7.24;3.51;;;;;;;3.32;63.60;102419.23;463772;112;922685;-69
2022/03/22 00:37:46;;;;;;;7.27;3.56;;;;;;;3.29;63.59;102423.05;462748;112;923239;-70
2022/03/22 00:38:50;;;;;;;9.39;3.87;;;;;;;3.27;63.68;102421.45;467764;112;922499;-69
2022/03/22 00:39:53;;;;;;;12.33;4.28;;;;;;;3.26;63.74;102425.12;466907;112;923591;-70
2022/03/22 00:40:58;;;;;;;7.22;3.62;;;;;;;3.25;63.76;102421.56;463473;112;930661;-68
2022/03/22 00:42:01;;;;;;;8.59;3.86;;;;;;;3.23;63.78;102428.07;464610;112;922504;-70
2022/03/22 00:43:05;;;;;;;8.59;3.36;;;;;;;3.22;63.83;102426.35;467823;112;930504;-69
2022/03/22 00:44:08;;;;;;;8.41;3.69;;;;;;;3.20;63.96;102426.46;469482;112;922725;-70
2022/03/22 00:45:16;;;;;;;11.98;4.39;;;;;;;3.18;63.99;102425.75;465491;112;930616;-70
2022/03/22 00:46:20;;;;;;;8.25;3.95;;;;;;;3.17;64.00;102425.86;466223;112;930614;-69
2022/03/22 00:47:23;;;;;;;10.31;4.86;;;;;;;3.15;64.05;102422.41;457528;112;922573;-69
2022/03/22 00:48:27;;;;;;;7.67;3.87;;;;;;;3.14;64.22;102432.34;462933;112;930651;-68
2022/03/22 00:49:33;;;;;;;8.19;4.09;;;;;;;3.13;64.15;102424.40;458627;112;922891;-69
2022/03/22 00:50:37;;;;;;;7.92;3.62;;;;;;;3.11;64.18;102426.34;466269;112;922558;-69
2022/03/22 00:51:41;;;;;;;7.64;3.78;;;;;;;3.09;64.31;102429.16;462676;112;923000;-69
2022/03/22 00:52:44;;;;;;;5.69;3.59;;;;;;;3.07;64.23;102425.74;467488;112;923538;-69
2022/03/22 00:53:51;;;;;;;8.52;4.36;;;;;;;3.06;64.31;102428.55;468073;112;922530;-69
2022/03/22 00:54:54;;;;;;;8.82;3.73;;;;;;;3.04;64.38;102434.05;456921;112;922541;-70
2022/03/22 00:56:01;;;;;;;6.55;3.21;;;;;;;3.03;64.42;102429.66;463633;112;923293;-70
2022/03/22 00:57:03;;;;;;;7.05;3.73;;;;;;;2.99;64.47;102430.86;466109;112;922514;-69
2022/03/22 00:58:08;;;;;;;9.37;3.89;;;;;;;2.98;64.49;102439.09;466138;112;922846;-69
2022/03/22 01:00:34;;;;;;;7.68;3.90;;;;;;;2.93;64.65;102429.51;462335;112;922689;-69
2022/03/22 01:01:38;;;;;;;6.80;3.46;;;;;;;2.91;64.76;102436.01;462997;112;922475;-68
2022/03/22 01:02:49;;;;;;;8.18;3.74;;;;;;;2.88;64.73;102438.92;459923;112;922985;-69
2022/03/22 01:03:51;;;;;;;8.11;3.37;;;;;;;2.85;64.86;102437.34;464850;112;922563;-71
2022/03/22 01:04:56;;;;;;;9.41;3.98;;;;;;;2.82;64.92;102432.18;460524;112;922553;-69
2022/03/22 01:06:01;;;;;;;10.11;4.03;;;;;;;2.80;64.98;102439.55;457658;112;922530;-69
2022/03/22 01:07:04;;;;;;;7.06;3.59;;;;;;;2.80;65.03;102438.69;467325;112;922499;-71
2022/03/22 01:08:10;;;;;;;7.81;3.72;;;;;;;2.80;65.12;102434.16;463888;112;922469;-68
2022/03/22 01:09:14;;;;;;;8.74;4.15;;;;;;;2.81;65.19;102438.54;457599;112;930399;-70
2022/03/22 01:10:19;;;;;;;15.69;4.32;;;;;;;2.82;65.18;102440.27;463944;112;922577;-70
2022/03/22 01:11:23;;;;;;;11.06;4.66;;;;;;;2.84;65.22;102445.54;464594;112;922712;-70
2022/03/22 01:12:26;;;;;;;7.07;4.12;;;;;;;2.84;65.25;102442.84;461231;112;922478;-69
2022/03/22 01:13:30;;;;;;;8.74;3.71;;;;;;;2.85;65.20;102445.42;467002;112;922568;-70
2022/03/22 01:14:34;;;;;;;7.18;3.75;;;;;;;2.87;65.20;102446.15;467096;112;930461;-69
2022/03/22 01:15:42;;;;;;;8.15;3.91;;;;;;;2.87;65.20;102445.28;459324;112;922603;-69
2022/03/22 01:16:44;;;;;;;6.52;3.67;;;;;;;2.87;65.24;102450.67;468755;112;922569;-68
2022/03/22 01:17:50;;;;;;;9.08;4.12;;;;;;;2.87;65.23;102446.15;464977;112;922979;-69
2022/03/22 01:18:53;;;;;;;8.85;3.63;;;;;;;2.88;65.24;102445.17;460615;112;922499;-70
2022/03/22 01:19:57;;;;;;;8.59;3.83;;;;;;;2.89;65.23;102449.59;462738;112;922665;-69
2022/03/22 01:21:00;;;;;;;6.73;3.34;;;;;;;2.90;65.19;102450.45;460454;112;922636;-69
2022/03/22 01:22:05;;;;;;;7.87;3.82;;;;;;;2.90;65.18;102454.01;463011;112;922560;-68
2022/03/22 01:23:10;;;;;;;9.04;4.48;;;;;;;2.91;65.24;102455.73;464282;112;922542;-68
2022/03/22 01:24:13;;;;;;;8.88;4.43;;;;;;;2.92;65.29;102452.03;463150;112;922595;-70
2022/03/22 01:25:19;;;;;;;8.90;4.86;;;;;;;2.94;65.23;102457.31;468064;112;930430;-70
2022/03/22 01:26:22;;;;;;;9.18;4.89;;;;;;;2.93;65.21;102456.45;457868;112;922686;-70
2022/03/22 01:27:26;;;;;;;10.31;4.65;;;;;;;2.94;65.19;102457.31;463262;112;922601;-68
2022/03/22 01:28:29;;;;;;;8.28;4.62;;;;;;;2.94;65.19;102452.78;465889;112;923007;-70
2022/03/22 01:29:33;;;;;;;8.27;3.76;;;;;;;2.94;65.21;102458.17;457777;112;922659;-70
2022/03/22 01:30:37;;;;;;;9.61;4.44;;;;;;;2.96;65.21;102465.28;461089;112;922604;-69
2022/03/22 01:31:40;;;;;;;10.99;5.55;;;;;;;2.95;65.21;102467.12;460472;112;930549;-69
2022/03/22 01:32:44;;;;;;;9.14;4.83;;;;;;;2.93;65.19;102461.84;462059;112;923098;-69
2022/03/22 01:33:49;;;;;;;11.49;4.18;;;;;;;2.93;65.20;102463.67;465063;112;922473;-71
2022/03/22 01:34:53;;;;;;;9.12;4.03;;;;;;;2.93;65.19;102469.06;467327;112;922546;-71
2022/03/22 01:35:56;;;;;;;9.87;4.32;;;;;;;2.92;65.24;102478.97;463307;112;922686;-70
2022/03/22 01:37:00;;;;;;;9.33;4.27;;;;;;;2.93;65.30;102469.06;460365;112;923163;-70
2022/03/22 01:38:04;;;;;;;8.67;4.47;;;;;;;2.93;65.33;102469.92;467396;112;922941;-69
2022/03/22 01:39:07;;;;;;;8.53;4.65;;;;;;;2.93;65.27;102464.53;462765;112;922602;-70
2022/03/22 01:40:12;;;;;;;7.85;3.88;;;;;;;2.94;65.21;102474.34;456571;112;922787;-70
2022/03/22 01:41:15;;;;;;;6.72;3.91;;;;;;;2.93;65.18;102472.61;460637;112;931005;-69
2022/03/22 01:42:19;;;;;;;11.63;4.72;;;;;;;2.92;65.16;102480.84;463628;112;930609;-69
2022/03/22 01:43:23;;;;;;;10.34;4.68;;;;;;;2.92;65.20;102487.05;462706;112;930550;-69
2022/03/22 01:44:26;;;;;;;9.69;4.12;;;;;;;2.91;65.21;102485.37;465756;112;922650;-69
2022/03/22 01:45:30;;;;;;;8.19;3.83;;;;;;;2.91;65.20;102479.98;461953;112;922570;-71
2022/03/22 01:46:36;;;;;;;8.72;4.22;;;;;;;2.92;65.22;102484.36;462161;112;922619;-70
2022/03/22 01:47:40;;;;;;;9.28;4.97;;;;;;;2.91;65.14;102487.20;469317;112;922585;-70
2022/03/22 01:48:44;;;;;;;9.75;4.25;;;;;;;2.89;65.13;102489.14;464273;112;922548;-68
2022/03/22 01:49:47;;;;;;;11.31;4.99;;;;;;;2.87;65.18;102502.72;465275;112;922988;-69
2022/03/22 01:50:51;;;;;;;9.40;3.81;;;;;;;2.86;65.24;102498.34;464119;112;930562;-69
2022/03/22 01:51:56;;;;;;;8.26;4.54;;;;;;;2.85;65.29;102499.31;457983;112;930983;-70
2022/03/22 01:53:00;;;;;;;9.32;4.67;;;;;;;2.86;65.32;102503.73;461087;112;922544;-69
2022/03/22 01:54:04;;;;;;;8.92;4.47;;;;;;;2.85;65.30;102496.61;463279;113;922655;-69
2022/03/22 01:55:09;;;;;;;8.85;3.72;;;;;;;2.84;65.33;102505.66;464730;113;922783;-69
2022/03/22 01:56:15;;;;;;;8.04;4.04;;;;;;;2.84;65.41;102494.89;464929;113;930575;-71
2022/03/22 01:57:20;;;;;;;9.52;4.69;;;;;;;2.86;65.30;102505.55;464000;113;922457;-69
2022/03/22 01:58:24;;;;;;;9.03;4.29;;;;;;;2.85;65.29;102507.39;464439;113;922750;-69
2022/03/22 01:59:27;;;;;;;8.91;4.49;;;;;;;2.85;65.25;102512.78;463500;113;922639;-68
2022/03/22 02:00:31;;;;;;;9.43;4.24;;;;;;;2.85;65.22;102517.30;464091;113;922548;-69
2022/03/22 02:05:52;;;;;;;8.27;4.23;;;;;;;2.76;65.27;102513.46;460029;113;922656;-71
2022/03/22 02:06:58;;;;;;;7.61;3.78;;;;;;;2.74;65.33;102515.44;463551;113;922664;-69
2022/03/22 02:08:02;;;;;;;9.14;4.50;;;;;;;2.73;65.39;102516.41;461762;113;922810;-69
2022/03/22 02:09:06;;;;;;;8.02;4.74;;;;;;;2.74;65.46;102525.34;463775;113;922536;-69
2022/03/22 02:10:09;;;;;;;10.65;4.24;;;;;;;2.73;65.52;102519.09;462527;113;922544;-71
2022/03/22 02:11:14;;;;;;;9.48;4.41;;;;;;;2.74;65.52;102519.95;461310;113;922530;-68
2022/03/22 02:12:17;;;;;;;6.41;3.34;;;;;;;2.73;65.55;102512.84;465088;113;922838;-67
2022/03/22 02:13:21;;;;;;;7.68;3.88;;;;;;;2.73;65.50;102520.93;459991;113;922876;-68
2022/03/22 02:14:25;;;;;;;10.30;4.29;;;;;;;2.72;65.51;102519.20;463991;112;922937;-69
2022/03/22 02:15:28;;;;;;;6.32;3.82;;;;;;;2.72;65.59;102519.20;460678;112;922486;-69
2022/03/22 02:16:32;;;;;;;7.02;4.28;;;;;;;2.70;65.52;102519.31;461495;112;922798;-69
2022/03/22 02:17:35;;;;;;;9.88;4.11;;;;;;;2.71;65.56;102526.42;459476;112;930570;-69
2022/03/22 02:18:40;;;;;;;8.11;4.02;;;;;;;2.70;65.54;102524.70;457689;115;922791;-71
2022/03/22 02:19:44;;;;;;;7.55;4.40;;;;;;;2.70;65.53;102534.64;454023;112;922802;-69
2022/03/22 02:20:48;;;;;;;9.43;4.59;;;;;;;2.70;65.58;102537.34;462882;113;930511;-70
2022/03/22 02:21:55;;;;;;;8.05;3.95;;;;;;;2.70;65.52;102537.34;466307;112;923129;-69
2022/03/22 02:23:21;;;;;;;8.59;4.73;;;;;;;2.70;65.51;102534.64;463474;112;922575;-68
2022/03/22 02:24:24;;;;;;;10.73;4.76;;;;;;;2.69;65.52;102538.30;463523;113;922864;-70
2022/03/22 02:25:28;;;;;;;8.93;4.35;;;;;;;2.67;65.51;102545.63;463920;113;922606;-69
2022/03/22 02:26:31;;;;;;;7.28;3.94;;;;;;;2.65;65.64;102543.04;461723;113;923100;-69
2022/03/22 02:27:35;;;;;;;5.30;3.61;;;;;;;2.64;65.53;102548.56;465719;113;930616;-69
2022/03/22 02:28:39;;;;;;;7.08;4.01;;;;;;;2.61;65.50;102552.34;464710;113;922531;-69
2022/03/22 02:29:43;;;;;;;6.15;3.75;;;;;;;2.58;65.51;102549.89;463859;113;923124;-70
2022/03/22 02:30:46;;;;;;;6.90;3.90;;;;;;;2.54;65.57;102556.45;463710;113;922547;-68
2022/03/22 02:31:52;;;;;;;7.78;4.46;;;;;;;2.50;65.64;102544.20;460914;113;922858;-71
2022/03/22 02:33:00;;;;;;;10.11;4.25;;;;;;;2.45;65.75;102549.94;460659;113;923045;-69
2022/03/22 02:34:03;;;;;;;6.88;4.69;;;;;;;2.42;65.79;102552.01;466710;113;922664;-69
2022/03/22 02:35:07;;;;;;;7.42;4.09;;;;;;;2.40;65.89;102549.42;463433;113;922611;-69
2022/03/22 02:36:12;;;;;;;7.51;4.52;;;;;;;2.39;65.92;102560.30;460904;113;930553;-69
2022/03/22 02:37:16;;;;;;;7.78;4.30;;;;;;;2.37;65.98;102554.19;464018;113;930516;-70
2022/03/22 02:38:19;;;;;;;7.83;4.01;;;;;;;2.35;66.05;102556.12;467024;113;930583;-70
2022/03/22 02:39:22;;;;;;;8.35;4.30;;;;;;;2.34;66.09;102560.64;464149;113;922864;-69
2022/03/22 02:40:27;;;;;;;8.76;4.54;;;;;;;2.32;66.15;102559.02;463820;113;922535;-70
2022/03/22 02:41:32;;;;;;;8.96;4.26;;;;;;;2.30;66.18;102561.84;463146;113;922522;-69
2022/03/22 02:42:35;;;;;;;8.91;4.97;;;;;;;2.28;66.18;102569.16;463825;113;930505;-69
2022/03/22 02:43:38;;;;;;;7.33;4.03;;;;;;;2.29;66.30;102561.95;463010;113;922977;-69
2022/03/22 02:44:42;;;;;;;9.01;4.90;;;;;;;2.30;66.30;102569.06;467593;113;922566;-69
2022/03/22 02:45:45;;;;;;;6.42;4.42;;;;;;;2.29;66.38;102567.34;464119;113;922963;-69
2022/03/22 02:46:49;;;;;;;6.96;4.09;;;;;;;2.29;66.34;102572.72;464825;113;923348;-70
2022/03/22 02:47:52;;;;;;;8.34;4.39;;;;;;;2.29;66.39;102573.58;465432;113;928138;-69
2022/03/22 02:48:56;;;;;;;7.14;4.26;;;;;;;2.29;66.36;102572.72;462221;113;930522;-69
2022/03/22 02:49:59;;;;;;;12.56;4.71;;;;;;;2.29;66.40;102570.03;463546;113;922492;-69
2022/03/22 02:51:03;;;;;;;7.25;4.29;;;;;;;2.28;66.40;102577.23;464034;113;922886;-70
2022/03/22 02:52:07;;;;;;;6.95;3.96;;;;;;;2.29;66.42;102580.80;462745;113;922552;-70
2022/03/22 02:53:10;;;;;;;8.85;4.35;;;;;;;2.29;66.42;102576.27;463083;113;922697;-70
2022/03/22 02:54:14;;;;;;;10.68;4.44;;;;;;;2.31;66.46;102581.55;461009;112;922564;-69
2022/03/22 02:55:18;;;;;;;12.09;4.89;;;;;;;2.32;66.45;102585.94;462079;112;922453;-68
2022/03/22 02:56:21;;;;;;;9.29;4.64;;;;;;;2.31;66.46;102582.41;460475;112;923405;-69
2022/03/22 02:57:25;;;;;;;9.34;4.15;;;;;;;2.33;66.49;102580.45;460137;112;922450;-71
2022/03/22 02:58:28;;;;;;;7.14;4.24;;;;;;;2.34;66.48;102582.17;462676;112;922569;-69
2022/03/22 02:59:32;;;;;;;8.22;4.52;;;;;;;2.36;66.47;102590.14;462516;112;923069;-68
2022/03/22 03:00:35;;;;;;;9.28;5.02;;;;;;;2.37;66.44;102589.18;462826;112;922696;-69
2022/03/22 03:01:41;;;;;;;9.37;4.75;;;;;;;2.39;66.41;102592.59;455137;114;930527;-69
2022/03/22 03:02:47;;;;;;;7.00;4.34;;;;;;;2.39;66.44;102596.16;456953;112;922836;-69
2022/03/22 03:03:52;;;;;;;8.86;4.84;;;;;;;2.40;66.43;102597.88;460816;112;923214;-69
2022/03/22 03:04:55;;;;;;;9.21;4.91;;;;;;;2.41;66.40;102602.30;464138;112;922569;-68
2022/03/22 03:05:58;;;;;;;8.63;4.54;;;;;;;2.41;66.37;102604.98;462848;112;922936;-69
2022/03/22 03:07:02;;;;;;;11.86;5.19;;;;;;;2.42;66.35;102600.47;460432;112;922567;-69
2022/03/22 03:08:06;;;;;;;9.11;4.85;;;;;;;2.42;66.31;102604.02;457978;112;922616;-69
2022/03/22 03:09:10;;;;;;;8.51;4.59;;;;;;;2.43;66.28;102605.72;461200;112;923353;-69
2022/03/22 03:10:13;;;;;;;8.18;4.92;;;;;;;2.43;66.33;102603.02;459730;112;930571;-69
2022/03/22 03:11:17;;;;;;;9.31;4.51;;;;;;;2.44;66.27;102601.19;461194;112;922574;-69
2022/03/22 03:12:20;;;;;;;9.66;5.37;;;;;;;2.45;66.24;102611.00;462116;112;930959;-68
2022/03/22 03:13:24;;;;;;;7.64;4.53;;;;;;;2.44;66.19;102609.27;461106;112;922771;-70
2022/03/22 03:14:39;;;;;;;10.34;4.61;;;;;;;2.43;66.21;102603.02;461277;112;922735;-71
2022/03/22 03:15:44;;;;;;;8.76;4.76;;;;;;;2.43;66.24;102607.55;460384;112;930552;-69
2022/03/22 03:16:47;;;;;;;7.19;3.59;;;;;;;2.42;66.22;102609.41;459789;112;923220;-68
2022/03/22 03:17:51;;;;;;;9.28;4.84;;;;;;;2.40;66.17;102603.27;462250;112;922638;-69
2022/03/22 03:18:54;;;;;;;6.95;4.61;;;;;;;2.39;66.19;102611.44;462675;112;925488;-70
2022/03/22 03:19:58;;;;;;;8.34;4.19;;;;;;;2.38;66.20;102607.89;461806;112;930462;-68
2022/03/22 03:21:01;;;;;;;8.89;4.32;;;;;;;2.38;66.20;102602.50;461399;112;922965;-70
2022/03/22 03:22:06;;;;;;;8.67;3.60;;;;;;;2.37;66.20;102606.16;464178;112;922469;-69
2022/03/22 03:23:09;;;;;;;7.33;3.83;;;;;;;2.37;66.19;102600.78;466549;112;922509;-69
2022/03/22 03:24:12;;;;;;;7.31;4.28;;;;;;;2.38;66.19;102610.58;465393;112;922866;-69
2022/03/22 03:25:17;;;;;;;13.57;5.18;;;;;;;2.37;66.12;102602.64;459064;112;922502;-70
2022/03/22 03:26:20;;;;;;;8.19;4.97;;;;;;;2.35;66.09;102610.81;462148;112;922574;-70
2022/03/22 03:27:24;;;;;;;8.34;4.50;;;;;;;2.33;66.06;102604.67;460732;112;930633;-69
2022/03/22 03:28:27;;;;;;;8.90;4.22;;;;;;;2.31;66.15;102612.02;460859;112;922515;-70
2022/03/22 03:29:31;;;;;;;9.48;5.24;;;;;;;2.29;66.09;102619.34;466350;112;922545;-69
2022/03/22 03:30:34;;;;;;;9.22;5.76;;;;;;;2.28;66.14;102619.44;460134;112;922991;-68
2022/03/22 03:31:38;;;;;;;8.19;4.94;;;;;;;2.27;66.21;102618.58;466902;112;930519;-69
2022/03/22 03:32:43;;;;;;;9.11;4.37;;;;;;;2.27;66.27;102623.96;459219;112;930554;-70
2022/03/22 03:33:46;;;;;;;8.63;4.37;;;;;;;2.28;66.28;102630.20;460329;112;930454;-68
2022/03/22 03:34:49;;;;;;;9.61;4.49;;;;;;;2.29;66.28;102619.34;461316;112;922643;-69
2022/03/22 03:35:54;;;;;;;7.72;4.59;;;;;;;2.29;66.28;102624.72;461187;112;922556;-70
2022/03/22 03:36:57;;;;;;;8.14;4.36;;;;;;;2.29;66.23;102626.55;462382;112;922548;-70
2022/03/22 03:38:00;;;;;;;7.06;3.79;;;;;;;2.28;66.24;102619.44;461234;112;930771;-68
2022/03/22 03:39:04;;;;;;;6.19;3.98;;;;;;;2.24;66.18;102632.27;461610;112;922636;-69
2022/03/22 03:40:09;;;;;;;10.88;4.71;;;;;;;2.21;66.20;102628.92;459106;112;922508;-69
2022/03/22 03:42:41;;;;;;;7.72;4.12;;;;;;;2.15;66.29;102629.39;459295;112;922556;-69
2022/03/22 03:43:39;;;;;;;8.25;4.27;;;;;;;2.14;66.43;102633.05;459416;112;922621;-69
2022/03/22 03:47:26;;;;;;;7.91;4.36;;;;;;;2.08;66.51;102619.06;459108;112;922776;-69
2022/03/22 03:48:30;;;;;;;10.09;4.51;;;;;;;2.05;66.56;102630.03;461508;112;922484;-69
2022/03/22 03:49:35;;;;;;;8.57;4.24;;;;;;;2.02;66.60;102632.09;458073;112;930643;-69
2022/03/22 03:50:39;;;;;;;8.47;4.43;;;;;;;2.01;66.72;102636.61;461921;112;922738;-69
2022/03/22 03:51:44;;;;;;;10.25;4.13;;;;;;;1.99;66.71;102635.84;463498;112;922599;-70
2022/03/22 03:52:48;;;;;;;8.79;4.56;;;;;;;1.98;66.76;102635.98;459416;112;922557;-68
2022/03/22 03:53:52;;;;;;;6.41;3.72;;;;;;;1.98;66.81;102634.16;460339;112;922556;-69
2022/03/22 03:54:56;;;;;;;6.63;4.14;;;;;;;1.99;66.84;102635.84;447183;118;922840;-70
2022/03/22 03:56:00;;;;;;;8.03;4.20;;;;;;;2.01;66.89;102638.44;439537;120;922650;-68
2022/03/22 03:57:04;;;;;;;8.22;4.31;;;;;;;2.00;66.86;102637.57;444471;119;922649;-67
2022/03/22 03:58:07;;;;;;;9.38;4.72;;;;;;;2.00;66.79;102639.40;444385;119;930500;-70
2022/03/22 03:59:11;;;;;;;9.22;4.59;;;;;;;1.99;66.76;102643.92;444500;119;922532;-68
2022/03/22 04:00:17;;;;;;;7.33;4.57;;;;;;;1.98;66.77;102644.05;437210;119;922954;-69
2022/03/22 04:01:21;;;;;;;7.55;4.87;;;;;;;1.98;66.87;102654.81;443255;119;922558;-69
2022/03/22 04:02:25;;;;;;;10.74;4.38;;;;;;;1.99;66.91;102653.81;437451;120;922659;-69
2022/03/22 04:03:30;;;;;;;7.68;4.22;;;;;;;1.99;66.88;102657.37;440044;119;923108;-70
2022/03/22 04:04:37;;;;;;;7.30;3.85;;;;;;;2.01;66.97;102654.58;440396;119;922641;-68
2022/03/22 04:05:40;;;;;;;6.63;3.53;;;;;;;2.02;66.92;102651.78;440225;119;922880;-71
2022/03/22 04:06:47;;;;;;;8.53;4.37;;;;;;;2.00;66.77;102651.02;432343;120;922767;-69
2022/03/22 04:07:50;;;;;;;8.81;4.48;;;;;;;2.00;66.77;102651.02;439552;120;922814;-69
2022/03/22 04:08:55;;;;;;;7.14;3.97;;;;;;;2.01;66.83;102646.50;444516;118;922781;-71
2022/03/22 04:09:58;;;;;;;10.00;4.95;;;;;;;2.00;66.85;102656.41;444979;118;922670;-67
2022/03/22 04:11:02;;;;;;;8.64;4.35;;;;;;;2.00;66.89;102656.41;445104;118;922938;-69
2022/03/22 04:12:07;;;;;;;10.95;4.84;;;;;;;2.00;66.89;102659.09;439550;120;930502;-71
2022/03/22 04:13:11;;;;;;;8.76;5.34;;;;;;;2.00;66.95;102658.23;444545;119;922557;-69
2022/03/22 04:14:14;;;;;;;8.49;4.56;;;;;;;2.03;66.92;102658.90;444485;119;922615;-70
2022/03/22 04:15:18;;;;;;;6.72;4.81;;;;;;;2.05;66.93;102665.01;444505;119;922457;-68
2022/03/22 04:16:21;;;;;;;12.67;4.87;;;;;;;2.07;66.96;102660.39;444436;119;930528;-70
2022/03/22 04:17:25;;;;;;;8.74;4.36;;;;;;;2.09;66.96;102654.91;444519;119;923127;-68
2022/03/22 04:18:29;;;;;;;9.73;4.76;;;;;;;2.12;66.96;102661.88;440062;119;930571;-70
2022/03/22 04:19:32;;;;;;;13.29;4.92;;;;;;;2.14;66.92;102668.03;442111;119;922561;-70
2022/03/22 04:20:35;;;;;;;9.49;5.76;;;;;;;2.14;66.88;102668.03;439673;120;922730;-69
2022/03/22 04:21:39;;;;;;;10.21;5.31;;;;;;;2.14;66.85;102676.97;439541;119;923047;-70
2022/03/22 04:22:43;;;;;;;9.31;5.58;;;;;;;2.14;66.83;102682.34;444326;119;922838;-69
2022/03/22 04:23:46;;;;;;;10.35;5.71;;;;;;;2.16;66.90;102679.52;444187;118;922903;-69
2022/03/22 04:24:49;;;;;;;8.96;5.08;;;;;;;2.18;66.92;102683.84;437934;119;922656;-68
2022/03/22 04:25:53;;;;;;;8.62;5.08;;;;;;;2.21;66.89;102674.67;434410;121;923032;-69
2022/03/22 04:32:41;;;;;;;10.44;5.99;;;;;;;2.23;66.94;102680.81;443273;116;931057;-69
2022/03/22 04:33:29;;;;;;;9.91;5.22;;;;;;;2.35;66.69;102688.02;453109;116;923138;-70
2022/03/22 04:34:32;;;;;;;11.86;7.78;;;;;;;2.38;66.78;102687.78;451742;116;922681;-70
2022/03/22 04:35:37;;;;;;;9.38;6.63;;;;;;;2.39;66.79;102701.14;452560;116;922701;-69
2022/03/22 04:36:40;;;;;;;11.67;8.10;;;;;;;2.41;66.78;102699.22;454440;116;922549;-69
2022/03/22 04:37:47;;;;;;;11.78;8.24;;;;;;;2.43;66.78;102697.25;452542;116;922518;-68
2022/03/22 04:38:50;;;;;;;12.72;8.02;;;;;;;2.47;66.79;102696.08;449750;116;923091;-69
2022/03/22 04:39:53;;;;;;;10.89;7.35;;;;;;;2.50;66.75;102701.23;452083;116;923160;-69
2022/03/22 04:40:57;;;;;;;11.74;7.69;;;;;;;2.54;66.74;102701.86;452292;116;923007;-71
2022/03/22 04:42:02;;;;;;;14.63;7.41;;;;;;;2.56;66.71;102701.75;452951;116;922607;-70
2022/03/22 04:43:06;;;;;;;8.39;6.05;;;;;;;2.58;66.70;102706.08;453808;116;930581;-70
2022/03/22 04:44:10;;;;;;;10.08;5.99;;;;;;;2.61;66.64;102707.66;453726;116;922561;-70
2022/03/22 04:45:14;;;;;;;12.49;8.07;;;;;;;2.64;66.64;102713.72;450670;116;922995;-67
2022/03/22 04:46:18;;;;;;;14.28;9.78;;;;;;;2.66;66.51;102702.80;452903;116;922797;-71
2022/03/22 04:47:21;;;;;;;14.68;9.09;;;;;;;2.68;66.47;102711.64;454242;116;930377;-69
2022/03/22 04:48:25;;;;;;;17.79;10.17;;;;;;;2.69;66.45;102714.23;453060;116;922944;-69
2022/03/22 04:49:29;;;;;;;17.45;10.19;;;;;;;2.71;66.41;102720.34;451333;116;928591;-69
2022/03/22 04:50:32;;;;;;;11.15;8.31;;;;;;;2.73;66.39;102723.80;453001;116;923116;-70
2022/03/22 04:56:54;;;;;;;8.28;5.12;;;;;;;2.81;66.31;102726.78;432450;122;922614;-71
2022/03/22 04:57:58;;;;;;;9.95;5.18;;;;;;;2.81;66.29;102732.17;432377;122;923034;-70
2022/03/22 04:59:08;;;;;;;10.68;5.38;;;;;;;2.93;66.23;102725.89;473329;110;947008;-70
2022/03/22 05:00:14;;;;;;;7.90;5.55;;;;;;;2.82;66.24;102723.12;464274;112;922535;-70
2022/03/22 05:01:17;;;;;;;9.50;5.88;;;;;;;2.83;66.18;102730.23;464442;112;922650;-70
2022/03/22 05:02:22;;;;;;;10.04;5.86;;;;;;;2.84;66.13;102733.80;460727;114;922571;-68
2022/03/22 05:03:25;;;;;;;10.24;6.02;;;;;;;2.85;66.12;102733.69;465557;114;922204;-69
2022/03/22 05:04:29;;;;;;;9.04;5.11;;;;;;;2.87;66.13;102733.55;457550;114;922983;-69
2022/03/22 05:06:54;;;;;;;8.55;5.25;;;;;;;2.89;66.01;102740.56;457390;114;923004;-70
2022/03/22 05:07:58;;;;;;;7.94;4.49;;;;;;;2.91;66.00;102735.94;457904;112;922870;-70
2022/03/22 05:09:02;;;;;;;6.04;4.55;;;;;;;2.92;65.95;102739.50;462783;114;930613;-70
2022/03/22 05:10:06;;;;;;;8.25;4.49;;;;;;;2.93;65.91;102731.28;465533;114;922948;-69
2022/03/22 05:11:09;;;;;;;7.57;4.51;;;;;;;2.94;65.82;102733.00;465287;114;923008;-70
2022/03/22 05:12:16;;;;;;;8.85;4.64;;;;;;;2.96;65.82;102738.29;465344;114;922490;-70
2022/03/22 05:13:19;;;;;;;10.15;5.13;;;;;;;2.98;65.78;102743.58;465178;114;922535;-69
2022/03/22 05:14:23;;;;;;;8.92;4.40;;;;;;;2.99;65.81;102745.27;465325;114;922591;-69
2022/03/22 05:15:26;;;;;;;9.68;4.89;;;;;;;3.00;65.78;102745.16;465365;114;922910;-68
2022/03/22 05:16:30;;;;;;;8.39;4.97;;;;;;;3.03;65.73;102746.79;465210;114;930436;-69
2022/03/22 05:17:33;;;;;;;7.68;4.25;;;;;;;3.04;65.71;102746.65;465289;112;930521;-69
2022/03/22 05:18:37;;;;;;;9.61;5.62;;;;;;;3.06;65.64;102751.94;465286;114;922548;-69
2022/03/22 05:19:41;;;;;;;9.11;5.11;;;;;;;3.08;65.57;102752.70;465315;114;922559;-69